createdAt,value
2018-09-10T00:01:41.479Z,3.10
2018-09-10T00:04:09.950Z,3.80
2018-09-10T00:06:38.410Z,3.37
2018-09-10T00:09:08.331Z,4.30
2018-09-10T00:11:37.640Z,3.60
2018-09-10T00:14:06.155Z,4.03
2018-09-10T00:16:34.698Z,3.23
2018-09-10T00:19:03.134Z,3.03
2018-09-10T00:21:31.638Z,3.15
2018-09-10T00:24:00.106Z,3.02
2018-09-10T00:26:28.609Z,2.90
2018-09-10T00:28:57.118Z,3.50
2018-09-10T00:31:25.581Z,3.58
2018-09-10T00:33:54.059Z,3.70
2018-09-10T00:36:22.545Z,3.87
2018-09-10T00:38:51.019Z,3.40
2018-09-10T00:41:19.485Z,2.73
2018-09-10T00:43:47.966Z,3.70
2018-09-10T00:46:16.460Z,3.87
2018-09-10T00:48:44.946Z,3.73
2018-09-10T00:51:13.472Z,3.20
2018-09-10T00:53:42.226Z,3.20
2018-09-10T00:56:10.734Z,3.40
2018-09-10T00:58:39.198Z,3.50
2018-09-10T01:01:07.702Z,3.42
2018-09-10T01:03:36.190Z,2.85
2018-09-10T01:06:04.679Z,3.65
2018-09-10T01:08:33.178Z,2.87
2018-09-10T01:11:01.663Z,3.25
2018-09-10T01:13:30.151Z,2.95
2018-09-10T01:15:58.646Z,3.58
2018-09-10T01:18:27.210Z,2.70
2018-09-10T01:20:55.696Z,3.50
2018-09-10T01:23:24.195Z,3.33
2018-09-10T01:25:52.670Z,3.80
2018-09-10T01:28:21.152Z,2.67
2018-09-10T01:30:49.618Z,3.25
2018-09-10T01:33:23.391Z,3.17
2018-09-10T01:35:51.859Z,3.53
2018-09-10T01:38:20.344Z,3.42
2018-09-10T01:40:48.839Z,3.40
2018-09-10T01:43:17.302Z,3.75
2018-09-10T01:45:45.755Z,3.20
2018-09-10T01:48:14.215Z,3.75
2018-09-10T01:50:42.733Z,3.92
2018-09-10T01:53:11.234Z,3.33
2018-09-10T01:55:39.715Z,3.95
2018-09-10T01:58:08.179Z,4.25
2018-09-10T02:00:36.658Z,3.95
2018-09-10T02:03:05.159Z,3.15
2018-09-10T02:05:33.707Z,3.33
2018-09-10T02:08:02.174Z,3.10
2018-09-10T02:10:30.659Z,3.47
2018-09-10T02:12:59.131Z,3.98
2018-09-10T02:15:27.633Z,3.45
2018-09-10T02:17:56.088Z,3.70
2018-09-10T02:20:24.720Z,3.05
2018-09-10T02:22:53.082Z,3.12
2018-09-10T02:25:21.538Z,3.15
2018-09-10T02:27:50.073Z,3.55
2018-09-10T02:30:18.522Z,3.10
2018-09-10T02:32:46.995Z,2.92
2018-09-10T02:35:15.465Z,3.15
2018-09-10T02:37:43.950Z,3.58
2018-09-10T02:40:12.410Z,3.33
2018-09-10T02:42:40.879Z,3.12
2018-09-10T02:45:09.421Z,4.05
2018-09-10T02:47:37.875Z,3.58
2018-09-10T02:50:06.439Z,3.62
2018-09-10T02:52:34.945Z,3.75
2018-09-10T02:55:03.524Z,3.52
2018-09-10T02:57:31.943Z,3.90
2018-09-10T03:00:00.442Z,3.70
2018-09-10T03:02:28.932Z,4.10
2018-09-10T03:04:57.403Z,3.90
2018-09-10T03:07:25.863Z,3.30
2018-09-10T03:09:54.415Z,3.50
2018-09-10T03:12:22.915Z,3.77
2018-09-10T03:14:51.359Z,4.12
2018-09-10T03:17:19.826Z,3.50
2018-09-10T03:19:48.275Z,4.00
2018-09-10T03:22:16.781Z,3.70
2018-09-10T03:24:45.252Z,3.02
2018-09-10T03:27:13.714Z,3.75
2018-09-10T03:29:42.201Z,3.72
2018-09-10T03:32:10.669Z,4.03
2018-09-10T03:34:39.154Z,4.67
2018-09-10T03:37:07.628Z,3.30
2018-09-10T03:39:36.078Z,3.67
2018-09-10T03:42:04.562Z,3.95
2018-09-10T03:44:33.062Z,4.30
2018-09-10T03:47:01.514Z,3.77
2018-09-10T03:49:29.966Z,3.70
2018-09-10T03:51:58.517Z,3.75
2018-09-10T03:54:26.978Z,3.67
2018-09-10T03:56:55.455Z,4.00
2018-09-10T03:59:23.938Z,3.60
2018-09-10T04:01:52.471Z,4.17
2018-09-10T04:04:20.919Z,4.20
2018-09-10T04:06:49.399Z,3.65
2018-09-10T04:09:17.842Z,3.47
2018-09-10T04:11:46.315Z,3.75
2018-09-10T04:14:14.762Z,3.12
2018-09-10T04:16:43.291Z,3.42
2018-09-10T04:19:11.831Z,4.00
2018-09-10T04:21:40.312Z,3.98
2018-09-10T04:24:08.790Z,3.62
2018-09-10T04:26:37.269Z,3.35
2018-09-10T04:29:05.726Z,3.50
2018-09-10T04:31:34.205Z,4.00
2018-09-10T04:34:02.690Z,4.10
2018-09-10T04:36:31.139Z,3.60
2018-09-10T04:38:59.596Z,3.10
2018-09-10T04:41:33.437Z,3.45
2018-09-10T04:44:02.003Z,3.80
2018-09-10T04:46:30.441Z,4.95
2018-09-10T04:48:58.933Z,3.30
2018-09-10T04:51:27.435Z,3.90
2018-09-10T04:53:55.894Z,3.98
2018-09-10T04:56:24.401Z,3.80
2018-09-10T04:58:52.924Z,3.90
2018-09-10T05:01:21.457Z,3.65
2018-09-10T05:03:49.948Z,3.87
2018-09-10T05:06:18.619Z,3.52
2018-09-10T05:08:47.106Z,3.50
2018-09-10T05:11:15.670Z,3.60
2018-09-10T05:13:44.197Z,4.45
2018-09-10T05:16:12.659Z,4.58
2018-09-10T05:18:41.571Z,3.40
2018-09-10T05:21:10.266Z,3.30
2018-09-10T05:23:38.747Z,4.20
2018-09-10T05:26:07.211Z,3.60
2018-09-10T05:28:35.671Z,3.72
2018-09-10T05:31:04.271Z,3.87
2018-09-10T05:33:32.723Z,4.25
2018-09-10T05:36:01.174Z,4.20
2018-09-10T05:38:29.671Z,4.12
2018-09-10T05:40:58.146Z,4.80
2018-09-10T05:43:26.634Z,4.08
2018-09-10T05:45:55.077Z,3.90
2018-09-10T05:48:23.546Z,4.65
2018-09-10T05:50:52.054Z,5.87
2018-09-10T05:53:20.746Z,4.78
2018-09-10T05:55:49.079Z,4.67
2018-09-10T05:58:17.562Z,4.20
2018-09-10T06:00:46.034Z,7.10
2018-09-10T06:03:14.603Z,5.37
2018-09-10T06:05:43.047Z,4.40
2018-09-10T06:08:11.548Z,4.85
2018-09-10T06:10:40.070Z,5.40
2018-09-10T06:13:08.460Z,4.92
2018-09-10T06:15:37.026Z,4.45
2018-09-10T06:18:05.610Z,5.00
2018-09-10T06:20:34.060Z,4.20
2018-09-10T06:23:02.540Z,4.60
2018-09-10T06:25:31.007Z,4.00
2018-09-10T06:27:59.458Z,4.20
2018-09-10T06:30:27.918Z,3.70
2018-09-10T06:32:56.358Z,4.03
2018-09-10T06:35:24.911Z,4.13
2018-09-10T06:37:53.344Z,4.03
2018-09-10T06:40:21.847Z,4.43
2018-09-10T06:42:50.437Z,3.33
2018-09-10T06:45:19.116Z,4.00
2018-09-10T06:47:47.632Z,4.17
2018-09-10T06:50:16.113Z,4.00
2018-09-10T06:52:44.564Z,3.90
2018-09-10T06:55:13.099Z,4.33
2018-09-10T06:57:41.588Z,4.00
2018-09-10T07:00:10.138Z,4.90
2018-09-10T07:02:38.646Z,3.67
2018-09-10T07:05:07.109Z,3.67
2018-09-10T07:07:35.636Z,3.87
2018-09-10T07:10:04.157Z,4.43
2018-09-10T07:12:32.618Z,3.87
2018-09-10T07:15:01.086Z,3.23
2018-09-10T07:17:29.621Z,3.67
2018-09-10T07:19:58.127Z,3.37
2018-09-10T07:22:26.610Z,3.80
2018-09-10T07:24:55.076Z,3.30
2018-09-10T07:27:23.554Z,3.10
2018-09-10T07:29:52.021Z,4.10
2018-09-10T07:32:20.503Z,3.50
2018-09-10T07:34:49.046Z,3.90
2018-09-10T07:37:17.503Z,2.90
2018-09-10T07:39:46.051Z,2.73
2018-09-10T07:42:14.607Z,2.80
2018-09-10T07:44:43.074Z,2.40
2018-09-10T07:47:11.555Z,2.33
2018-09-10T07:49:40.062Z,2.83
2018-09-10T07:52:08.514Z,2.80
2018-09-10T07:54:37.029Z,2.17
2018-09-10T07:57:06.284Z,2.30
2018-09-10T07:59:34.780Z,2.20
2018-09-10T08:02:03.463Z,1.70
2018-09-10T08:04:31.916Z,1.80
2018-09-10T08:07:00.375Z,1.80
2018-09-10T08:09:28.920Z,1.90
2018-09-10T08:11:57.439Z,2.00
2018-09-10T08:14:25.885Z,2.10
2018-09-10T08:16:54.329Z,1.80
2018-09-10T08:19:22.784Z,1.57
2018-09-10T08:21:51.239Z,1.97
2018-09-10T08:24:19.703Z,1.60
2018-09-10T08:26:48.204Z,1.60
2018-09-10T08:29:16.673Z,1.70
2018-09-10T08:31:45.140Z,1.77
2018-09-10T08:34:13.667Z,1.67
2018-09-10T08:36:42.112Z,1.50
2018-09-10T08:39:10.637Z,1.43
2018-09-10T08:41:39.100Z,1.80
2018-09-10T08:44:07.584Z,1.50
2018-09-10T08:46:36.041Z,1.60
2018-09-10T08:49:05.147Z,1.63
2018-09-10T08:51:33.665Z,1.47
2018-09-10T08:54:02.172Z,1.47
2018-09-10T08:56:30.579Z,1.70
2018-09-10T08:58:59.080Z,1.50
2018-09-10T09:01:27.558Z,1.50
2018-09-10T09:03:56.015Z,1.40
2018-09-10T09:06:24.520Z,1.30
2018-09-10T09:08:52.970Z,1.30
2018-09-10T09:11:21.420Z,1.30
2018-09-10T09:13:50.323Z,1.40
2018-09-10T09:16:18.822Z,1.30
2018-09-10T09:18:47.398Z,1.83
2018-09-10T09:21:15.886Z,1.40
2018-09-10T09:23:44.339Z,1.30
2018-09-10T09:26:12.826Z,1.30
2018-09-10T09:28:41.280Z,1.30
2018-09-10T09:31:10.263Z,1.30
2018-09-10T09:33:38.723Z,1.47
2018-09-10T09:36:12.654Z,1.40
2018-09-10T09:38:46.482Z,1.63
2018-09-10T09:41:20.272Z,1.30
2018-09-10T09:43:53.919Z,1.30
2018-09-10T09:46:22.575Z,1.47
2018-09-10T09:48:51.010Z,1.50
2018-09-10T09:51:19.558Z,1.40
2018-09-10T09:53:47.935Z,1.50
2018-09-10T09:56:16.410Z,1.20
2018-09-10T09:58:44.883Z,1.20
2018-09-10T10:01:18.780Z,1.30
2018-09-10T10:04:06.599Z,1.20
2018-09-10T10:06:35.004Z,1.10
2018-09-10T10:09:04.497Z,1.37
2018-09-10T10:11:32.982Z,1.10
2018-09-10T10:14:01.422Z,1.20
2018-09-10T10:16:29.958Z,0.90
2018-09-10T10:18:58.490Z,1.70
2018-09-10T10:21:26.966Z,1.77
2018-09-10T10:23:55.397Z,1.97
2018-09-10T10:26:23.872Z,1.00
2018-09-10T10:28:52.461Z,1.50
2018-09-10T10:31:21.011Z,1.00
2018-09-10T10:33:49.531Z,1.40
2018-09-10T10:36:18.097Z,1.30
2018-09-10T10:38:46.554Z,1.40
2018-09-10T10:41:15.061Z,1.27
2018-09-10T10:43:43.519Z,1.23
2018-09-10T10:46:11.957Z,1.20
2018-09-10T10:48:40.480Z,1.30
2018-09-10T10:51:08.989Z,1.77
2018-09-10T10:53:37.416Z,1.20
2018-09-10T10:56:06.078Z,1.37
2018-09-10T10:58:34.547Z,1.10
2018-09-10T11:01:02.998Z,1.10
2018-09-10T11:03:31.433Z,1.20
2018-09-10T11:06:00.039Z,1.10
2018-09-10T11:08:28.495Z,1.00
2018-09-10T11:10:57.027Z,1.60
2018-09-10T11:13:25.519Z,1.33
2018-09-10T11:15:54.019Z,1.53
2018-09-10T11:18:22.449Z,1.10
2018-09-10T11:20:51.192Z,1.30
2018-09-10T11:23:19.646Z,1.40
2018-09-10T11:25:48.102Z,1.20
2018-09-10T11:28:16.572Z,0.90
2018-09-10T11:30:45.094Z,1.23
2018-09-10T11:33:13.550Z,1.20
2018-09-10T11:35:42.003Z,1.23
2018-09-10T11:38:10.531Z,1.20
2018-09-10T11:40:53.002Z,1.20
2018-09-10T11:43:21.806Z,1.07
2018-09-10T11:45:50.582Z,1.30
2018-09-10T11:48:19.088Z,1.40
2018-09-10T11:50:47.587Z,1.40
2018-09-10T11:53:16.051Z,1.40
2018-09-10T11:55:44.558Z,1.57
2018-09-10T11:58:13.034Z,1.60
2018-09-10T12:00:41.699Z,1.50
2018-09-10T12:03:10.231Z,1.57
2018-09-10T12:05:38.875Z,1.47
2018-09-10T12:08:07.387Z,1.53
2018-09-10T12:10:35.817Z,1.40
2018-09-10T12:13:04.343Z,1.50
2018-09-10T12:15:32.925Z,1.33
2018-09-10T12:18:01.478Z,1.63
2018-09-10T12:20:29.907Z,1.80
2018-09-10T12:22:58.378Z,1.77
2018-09-10T12:25:26.961Z,1.53
2018-09-10T12:27:55.407Z,1.40
2018-09-10T12:30:23.836Z,1.77
2018-09-10T12:32:52.295Z,1.50
2018-09-10T12:35:20.719Z,1.63
2018-09-10T12:37:49.179Z,1.60
2018-09-10T12:40:18.326Z,1.87
2018-09-10T12:42:46.740Z,1.60
2018-09-10T12:45:15.203Z,2.00
2018-09-10T12:47:43.760Z,1.33
2018-09-10T12:50:12.410Z,1.50
2018-09-10T12:52:40.935Z,1.73
2018-09-10T12:55:09.524Z,1.80
2018-09-10T12:57:37.995Z,1.50
2018-09-10T13:00:06.978Z,1.50
2018-09-10T13:02:35.461Z,1.50
2018-09-10T13:05:03.988Z,1.50
2018-09-10T13:07:32.578Z,1.63
2018-09-10T13:10:01.027Z,1.90
2018-09-10T13:12:29.506Z,1.70
2018-09-10T13:14:57.946Z,1.73
2018-09-10T13:17:26.400Z,1.70
2018-09-10T13:19:54.870Z,1.60
2018-09-10T13:22:23.339Z,1.50
2018-09-10T13:24:51.787Z,1.70
2018-09-10T13:27:20.279Z,1.50
2018-09-10T13:29:48.784Z,1.90
2018-09-10T13:32:17.325Z,1.60
2018-09-10T13:34:45.764Z,1.63
2018-09-10T13:37:14.236Z,1.90
2018-09-10T13:39:42.970Z,1.50
2018-09-10T13:42:11.546Z,1.80
2018-09-10T13:44:40.036Z,1.77
2018-09-10T13:47:08.603Z,1.70
2018-09-10T13:49:37.243Z,1.97
2018-09-10T13:52:05.735Z,1.70
2018-09-10T13:54:34.279Z,1.43
2018-09-10T13:57:02.757Z,1.83
2018-09-10T13:59:31.227Z,1.70
2018-09-10T14:02:00.554Z,1.70
2018-09-10T14:04:29.034Z,1.73
2018-09-10T14:06:57.479Z,1.70
2018-09-10T14:09:25.931Z,1.60
2018-09-10T14:11:54.553Z,2.00
2018-09-10T14:14:22.991Z,1.80
2018-09-10T14:16:51.469Z,1.60
2018-09-10T14:19:19.906Z,1.50
2018-09-10T14:21:48.519Z,1.57
2018-09-10T14:24:16.996Z,1.40
2018-09-10T14:26:45.574Z,1.77
2018-09-10T14:29:14.080Z,1.40
2018-09-10T14:31:42.692Z,1.77
2018-09-10T14:34:11.262Z,1.33
2018-09-10T14:36:39.773Z,2.00
2018-09-10T14:39:08.927Z,1.67
2018-09-10T14:41:37.579Z,1.90
2018-09-10T14:44:06.195Z,1.57
2018-09-10T14:46:34.695Z,1.90
2018-09-10T14:49:03.197Z,1.40
2018-09-10T14:51:31.806Z,1.60
2018-09-10T14:54:00.265Z,1.30
2018-09-10T14:56:28.772Z,1.50
2018-09-10T14:58:57.270Z,1.43
2018-09-10T15:01:25.722Z,1.70
2018-09-10T15:03:54.187Z,1.60
2018-09-10T15:06:22.635Z,2.83
2018-09-10T15:08:51.119Z,1.80
2018-09-10T15:11:19.631Z,1.60
2018-09-10T15:13:48.089Z,1.80
2018-09-10T15:16:16.571Z,1.40
2018-09-10T15:18:45.009Z,1.77
2018-09-10T15:21:13.482Z,1.70
2018-09-10T15:23:41.991Z,1.90
2018-09-10T15:26:10.813Z,1.70
2018-09-10T15:28:39.285Z,1.70
2018-09-10T15:31:07.875Z,1.60
2018-09-10T15:33:36.328Z,1.80
2018-09-10T15:36:04.899Z,1.67
2018-09-10T15:38:33.380Z,1.70
2018-09-10T15:41:01.819Z,1.40
2018-09-10T15:43:30.291Z,1.50
2018-09-10T15:45:58.771Z,2.10
2018-09-10T15:48:27.366Z,1.90
2018-09-10T15:50:55.982Z,1.50
2018-09-10T15:53:24.561Z,1.60
2018-09-10T15:55:53.096Z,1.63
2018-09-10T15:58:21.702Z,2.60
2018-09-10T16:00:50.551Z,2.20
2018-09-10T16:03:19.686Z,2.13
2018-09-10T16:05:48.139Z,1.60
2018-09-10T16:08:16.731Z,1.43
2018-09-10T16:10:45.227Z,1.60
2018-09-10T16:13:13.750Z,1.50
2018-09-10T16:15:42.231Z,1.70
2018-09-10T16:18:10.770Z,1.50
2018-09-10T16:20:39.394Z,1.50
2018-09-10T16:23:07.885Z,1.33
2018-09-10T16:25:36.409Z,2.30
2018-09-10T16:28:04.908Z,1.60
2018-09-10T16:30:33.390Z,1.80
2018-09-10T16:33:02.083Z,1.77
2018-09-10T16:35:30.808Z,1.53
2018-09-10T16:37:59.333Z,1.70
2018-09-10T16:40:27.818Z,2.00
2018-09-10T16:42:56.295Z,2.10
2018-09-10T16:45:24.812Z,2.53
2018-09-10T16:47:53.520Z,2.20
2018-09-10T16:50:22.055Z,1.60
2018-09-10T16:52:50.535Z,1.93
2018-09-10T16:55:19.068Z,1.73
2018-09-10T16:57:47.612Z,1.70
2018-09-10T17:00:16.133Z,1.60
2018-09-10T17:02:44.590Z,2.80
2018-09-10T17:05:13.060Z,3.17
2018-09-10T17:07:41.575Z,1.70
2018-09-10T17:10:10.162Z,2.57
2018-09-10T17:12:38.705Z,1.60
2018-09-10T17:15:07.223Z,2.87
2018-09-10T17:17:35.716Z,2.00
2018-09-10T17:20:04.413Z,1.90
2018-09-10T17:22:33.031Z,1.73
2018-09-10T17:25:01.901Z,1.87
2018-09-10T17:27:30.451Z,1.80
2018-09-10T17:29:59.228Z,1.70
2018-09-10T17:32:27.691Z,1.80
2018-09-10T17:34:56.188Z,1.87
2018-09-10T17:37:24.876Z,1.93
2018-09-10T17:39:53.419Z,2.07
2018-09-10T17:42:21.903Z,2.00
2018-09-10T17:44:50.426Z,2.57
2018-09-10T17:47:18.932Z,2.10
2018-09-10T17:49:47.354Z,2.30
2018-09-10T17:52:15.855Z,1.90
2018-09-10T17:54:44.312Z,2.03
2018-09-10T17:57:12.819Z,2.17
2018-09-10T17:59:41.275Z,2.63
2018-09-10T18:02:09.756Z,2.67
2018-09-10T18:04:38.210Z,2.43
2018-09-10T18:07:06.683Z,2.53
2018-09-10T18:09:35.139Z,2.00
2018-09-10T18:12:03.700Z,1.80
2018-09-10T18:14:32.155Z,2.67
2018-09-10T18:17:00.598Z,2.13
2018-09-10T18:19:29.172Z,4.07
2018-09-10T18:21:57.660Z,3.07
2018-09-10T18:24:26.130Z,2.97
2018-09-10T18:26:54.579Z,2.70
2018-09-10T18:29:23.088Z,2.00
2018-09-10T18:31:51.571Z,2.17
2018-09-10T18:34:20.122Z,2.10
2018-09-10T18:36:48.556Z,2.60
2018-09-10T18:39:17.061Z,2.90
2018-09-10T18:41:45.505Z,3.10
2018-09-10T18:44:13.964Z,2.37
2018-09-10T18:46:42.439Z,2.73
2018-09-10T18:49:10.910Z,2.70
2018-09-10T18:51:39.393Z,2.90
2018-09-10T18:54:07.922Z,2.90
2018-09-10T18:56:36.390Z,2.90
2018-09-10T18:59:04.987Z,2.47
2018-09-10T19:01:33.509Z,2.60
2018-09-10T19:04:01.977Z,2.90
2018-09-10T19:06:30.515Z,2.97
2018-09-10T19:08:58.965Z,3.03
2018-09-10T19:11:27.434Z,3.00
2018-09-10T19:13:55.943Z,3.00
2018-09-10T19:16:24.499Z,2.73
2018-09-10T19:18:53.026Z,2.63
2018-09-10T19:21:21.506Z,2.57
2018-09-10T19:23:50.007Z,2.53
2018-09-10T19:26:18.501Z,3.23
2018-09-10T19:28:47.805Z,3.97
2018-09-10T19:31:16.273Z,2.73
2018-09-10T19:33:44.850Z,2.93
2018-09-10T19:36:13.410Z,3.03
2018-09-10T19:38:41.906Z,2.87
2018-09-10T19:41:10.354Z,2.73
2018-09-10T19:43:38.858Z,3.70
2018-09-10T19:46:07.454Z,2.70
2018-09-10T19:48:35.919Z,3.83
2018-09-10T19:51:04.532Z,3.13
2018-09-10T19:53:33.013Z,4.70
2018-09-10T19:56:01.471Z,2.60
2018-09-10T19:58:29.950Z,3.10
2018-09-10T20:00:58.438Z,2.80
2018-09-10T20:03:26.925Z,3.10
2018-09-10T20:05:55.402Z,3.50
2018-09-10T20:08:23.902Z,2.83
2018-09-10T20:10:52.452Z,3.20
2018-09-10T20:13:20.942Z,3.20
2018-09-10T20:15:49.374Z,3.73
2018-09-10T20:18:17.887Z,3.00
2018-09-10T20:20:46.397Z,2.97
2018-09-10T20:23:14.896Z,3.43
2018-09-10T20:25:43.359Z,3.97
2018-09-10T20:28:11.870Z,3.00
2018-09-10T20:30:40.447Z,3.60
2018-09-10T20:33:08.878Z,11.47
2018-09-10T20:35:37.366Z,6.77
2018-09-10T20:38:05.830Z,25.20
2018-09-10T20:40:34.326Z,5.90
2018-09-10T20:43:02.794Z,6.00
2018-09-10T20:45:31.286Z,3.90
2018-09-10T20:47:59.739Z,3.30
2018-09-10T20:50:28.256Z,2.80
2018-09-10T20:52:56.723Z,2.73
2018-09-10T20:55:25.196Z,2.97
2018-09-10T20:57:53.792Z,2.50
2018-09-10T21:00:22.304Z,3.23
2018-09-10T21:02:50.755Z,3.93
2018-09-10T21:05:19.228Z,2.83
2018-09-10T21:07:47.773Z,3.70
2018-09-10T21:10:16.233Z,3.23
2018-09-10T21:12:44.727Z,3.37
2018-09-10T21:15:13.220Z,4.03
2018-09-10T21:17:41.686Z,3.10
2018-09-10T21:20:10.218Z,3.17
2018-09-10T21:22:38.705Z,3.27
2018-09-10T21:25:07.345Z,3.53
2018-09-10T21:27:35.828Z,3.47
2018-09-10T21:30:04.405Z,3.70
2018-09-10T21:32:32.883Z,3.80
2018-09-10T21:35:01.310Z,3.20
2018-09-10T21:37:29.765Z,4.20
2018-09-10T21:39:58.203Z,3.47
2018-09-10T21:42:26.687Z,4.13
2018-09-10T21:44:55.122Z,3.40
2018-09-10T21:47:23.659Z,4.00
2018-09-10T21:49:52.121Z,3.67
2018-09-10T21:52:20.619Z,3.60
2018-09-10T21:54:49.065Z,4.00
2018-09-10T21:57:17.547Z,3.57
2018-09-10T21:59:45.990Z,3.80
2018-09-10T22:02:14.479Z,4.00
2018-09-10T22:04:42.923Z,3.93
2018-09-10T22:07:11.438Z,4.30
2018-09-10T22:09:39.974Z,3.97
2018-09-10T22:12:08.646Z,4.70
2018-09-10T22:14:37.121Z,5.30
2018-09-10T22:17:05.662Z,5.13
2018-09-10T22:19:34.133Z,4.57
2018-09-10T22:22:02.617Z,4.73
2018-09-10T22:24:31.182Z,4.43
2018-09-10T22:26:59.602Z,3.30
2018-09-10T22:29:28.059Z,3.83
2018-09-10T22:31:56.506Z,4.43
2018-09-10T22:34:25.024Z,3.53
2018-09-10T22:36:53.578Z,3.47
2018-09-10T22:39:22.032Z,3.77
2018-09-10T22:41:50.485Z,3.07
2018-09-10T22:44:18.978Z,3.30
2018-09-10T22:46:47.388Z,3.57
2018-09-10T22:49:15.840Z,3.00
2018-09-10T22:51:44.319Z,3.07
2018-09-10T22:54:12.766Z,3.47
2018-09-10T22:56:41.238Z,3.97
2018-09-10T22:59:09.691Z,3.67
2018-09-10T23:01:38.116Z,3.67
2018-09-10T23:04:06.577Z,3.37
2018-09-10T23:06:35.025Z,3.30
2018-09-10T23:09:03.628Z,3.60
2018-09-10T23:11:32.047Z,3.53
2018-09-10T23:14:00.532Z,3.07
2018-09-10T23:16:29.010Z,3.10
2018-09-10T23:18:57.444Z,3.47
2018-09-10T23:21:26.312Z,3.63
2018-09-10T23:23:54.741Z,3.40
2018-09-10T23:26:23.192Z,3.30
2018-09-10T23:28:51.629Z,2.53
2018-09-10T23:31:20.127Z,3.10
2018-09-10T23:33:48.563Z,2.83
2018-09-10T23:36:17.037Z,2.80
2018-09-10T23:38:45.515Z,2.50
2018-09-10T23:41:13.993Z,2.70
2018-09-10T23:43:42.634Z,3.30
2018-09-10T23:46:11.085Z,3.07
2018-09-10T23:48:39.574Z,2.73
2018-09-10T23:51:08.091Z,2.90
2018-09-10T23:53:36.649Z,3.00
2018-09-10T23:56:05.112Z,3.40
2018-09-10T23:58:33.574Z,3.03
